Time;durP1;ratioP1;P1;durP2;ratioP2;P2;SDS_P1;SDS_P2;PMS_P1;PMS_P2;Temp;Humidity;BMP_temperature;BMP_pressure;BME280_temperature;BME280_humidity;BME280_pressure;Samples;Min_cycle;Max_cycle;Signal;HPM_P1;HPM_P2
2023/02/01 00:02:40;;;;;;;32.08;4.43;;;5.60;83.00;;;;;;9175535;19;20482;-62
2023/02/01 00:05:46;;;;;;;30.20;3.88;;;5.60;83.00;;;;;;9175865;19;20689;-62
2023/02/01 00:08:55;;;;;;;34.70;5.05;;;5.60;83.00;;;;;;9173714;19;20015;-61
2023/02/01 00:12:01;;;;;;;23.05;4.05;;;5.60;83.10;;;;;;9177016;19;20090;-62
2023/02/01 00:15:08;;;;;;;29.08;3.70;;;5.60;83.00;;;;;;9179959;19;20018;-62
2023/02/01 00:18:12;;;;;;;29.10;3.60;;;5.60;83.00;;;;;;9179651;19;20388;-62
2023/02/01 00:21:22;;;;;;;30.55;3.70;;;5.60;83.00;;;;;;9179258;19;20478;-61
2023/02/01 00:24:26;;;;;;;28.08;3.80;;;5.60;83.10;;;;;;9179127;19;20021;-63
2023/02/01 00:27:31;;;;;;;19.83;2.88;;;5.60;83.00;;;;;;9179428;19;20025;-62
2023/02/01 00:30:35;;;;;;;;;;;5.70;83.00;;;;;;9180369;19;20018;-65
2023/02/01 00:33:41;;;;;;;23.45;3.65;;;5.60;83.00;;;;;;9180349;19;19923;-64
2023/02/01 00:36:47;;;;;;;;;;;5.70;82.90;;;;;;9179674;19;20471;-64
2023/02/01 00:39:55;;;;;;;25.90;3.40;;;5.70;83.00;;;;;;9172645;19;19925;-66
2023/02/01 00:42:59;;;;;;;32.83;3.88;;;5.60;82.90;;;;;;9177434;19;20021;-64
2023/02/01 00:46:05;;;;;;;23.80;4.03;;;5.70;83.00;;;;;;9172826;19;20494;-64
2023/02/01 00:49:09;;;;;;;31.40;4.22;;;5.70;83.00;;;;;;9176041;19;20782;-65
2023/02/01 00:52:17;;;;;;;23.98;3.13;;;5.70;83.00;;;;;;9178535;19;20062;-64
2023/02/01 00:55:21;;;;;;;20.90;3.47;;;5.70;83.00;;;;;;9178757;19;20015;-63
2023/02/01 00:58:27;;;;;;;27.98;3.95;;;5.70;82.90;;;;;;9178754;19;20371;-63
2023/02/01 01:01:31;;;;;;;31.63;3.58;;;5.70;82.90;;;;;;9178501;19;20010;-62
2023/02/01 01:04:37;;;;;;;27.15;3.40;;;5.70;82.90;;;;;;9178713;19;20364;-62
2023/02/01 01:07:43;;;;;;;;;;;5.70;82.90;;;;;;9174917;19;20906;-62
2023/02/01 01:10:49;;;;;;;26.02;2.97;;;5.70;82.90;;;;;;9176108;19;19925;-62
2023/02/01 01:13:55;;;;;;;18.38;2.63;;;5.70;82.80;;;;;;9176075;19;20091;-63
2023/02/01 01:17:01;;;;;;;21.85;3.45;;;5.70;82.80;;;;;;9176708;19;20022;-63
2023/02/01 01:20:05;;;;;;;;;;;5.70;83.50;;;;;;9180341;19;20018;-62
2023/02/01 01:23:13;;;;;;;18.02;2.78;;;5.70;82.90;;;;;;9177451;19;19910;-62
2023/02/01 01:26:18;;;;;;;20.90;3.22;;;5.70;82.90;;;;;;9177800;19;20013;-65
2023/02/01 01:29:25;;;;;;;28.77;4.32;;;5.70;82.90;;;;;;9175144;19;20026;-63
2023/02/01 01:32:28;;;;;;;36.83;2.97;;;5.70;83.00;;;;;;9177039;19;20019;-62
2023/02/01 01:35:35;;;;;;;38.35;4.53;;;5.70;82.90;;;;;;9174896;19;20011;-62
2023/02/01 01:38:41;;;;;;;21.50;3.72;;;5.70;82.90;;;;;;9177121;19;20015;-63
2023/02/01 01:41:47;;;;;;;20.63;4.28;;;5.70;82.90;;;;;;9174765;19;20103;-64
2023/02/01 01:45:03;;;;;;;22.70;2.78;;;5.70;82.90;;;;;;9171190;19;20007;-64
2023/02/01 01:48:17;;;;;;;24.65;3.90;;;5.70;82.90;;;;;;9174466;19;20482;-61
2023/02/01 01:51:24;;;;;;;20.83;2.85;;;5.80;83.00;;;;;;9177720;19;20086;-61
2023/02/01 01:54:36;;;;;;;36.00;4.68;;;5.80;83.00;;;;;;9176967;19;20467;-62
2023/02/01 01:57:43;;;;;;;24.02;3.40;;;5.80;83.00;;;;;;9184565;19;20014;-62
2023/02/01 02:00:50;;;;;;;31.50;3.35;;;5.80;82.90;;;;;;9182766;19;20037;-64
2023/02/01 02:03:55;;;;;;;23.38;4.20;;;5.80;83.00;;;;;;9182107;19;20359;-64
2023/02/01 02:07:04;;;;;;;32.17;3.50;;;5.80;82.90;;;;;;9184333;19;20014;-64
2023/02/01 02:10:12;;;;;;;24.73;3.50;;;5.80;82.90;;;;;;9181611;19;20050;-63
2023/02/01 02:13:19;;;;;;;18.15;3.38;;;5.90;82.90;;;;;;9183814;19;20021;-62
2023/02/01 02:16:51;;;;;;;23.00;3.35;;;5.90;82.90;;;;;;9183380;19;20010;-61
2023/02/01 02:20:29;;;;;;;33.20;4.65;;;5.90;82.90;;;;;;9183656;19;20022;-62
2023/02/01 02:24:19;;;;;;;32.33;3.72;;;5.90;82.90;;;;;;9183623;19;20010;-62
2023/02/01 02:27:40;;;;;;;29.80;3.30;;;5.90;82.90;;;;;;9180567;19;20019;-62
2023/02/01 02:31:06;;;;;;;19.10;3.38;;;5.90;82.90;;;;;;9182294;19;20115;-62
2023/02/01 02:34:22;;;;;;;29.80;3.45;;;5.90;82.90;;;;;;9183039;19;20023;-63
2023/02/01 02:37:36;;;;;;;21.55;3.85;;;5.90;82.90;;;;;;9180907;19;20014;-62
2023/02/01 02:40:51;;;;;;;28.98;3.20;;;5.90;82.90;;;;;;9183111;19;20574;-63
2023/02/01 02:47:27;;;;;;;20.20;3.22;;;5.90;82.90;;;;;;9177612;19;20026;-66
2023/02/01 03:04:08;;;;;;;25.67;3.63;;;6.00;82.90;;;;;;9179880;19;20022;-62
2023/02/01 03:08:01;;;;;;;21.55;3.33;;;6.00;82.90;;;;;;9178427;19;20017;-62
2023/02/01 03:11:09;;;;;;;24.27;3.25;;;6.00;83.00;;;;;;9175067;19;20018;-61
2023/02/01 03:14:15;;;;;;;24.10;3.45;;;6.10;83.00;;;;;;9180429;19;20019;-61
2023/02/01 03:17:24;;;;;;;21.83;3.35;;;6.10;83.00;;;;;;9182051;19;20089;-64
2023/02/01 03:20:31;;;;;;;27.00;5.20;;;6.10;83.00;;;;;;9181476;19;20483;-64
2023/02/01 03:23:38;;;;;;;19.00;2.97;;;6.10;83.00;;;;;;9179750;19;20014;-62
2023/02/01 03:26:56;;;;;;;20.08;3.40;;;6.10;83.00;;;;;;9178938;19;20023;-64
2023/02/01 03:30:07;;;;;;;23.65;3.53;;;6.10;83.00;;;;;;9177446;19;20025;-62
2023/02/01 03:33:22;;;;;;;22.40;3.15;;;6.20;83.10;;;;;;9179783;19;20501;-62
2023/02/01 03:36:32;;;;;;;35.92;3.83;;;6.20;83.10;;;;;;9179521;19;20019;-62
2023/02/01 03:39:41;;;;;;;17.98;3.25;;;6.20;83.00;;;;;;9179367;19;20025;-65
2023/02/01 03:42:52;;;;;;;21.88;3.00;;;6.30;83.10;;;;;;9181195;19;20664;-63
2023/02/01 03:46:02;;;;;;;28.88;3.90;;;6.30;83.10;;;;;;9176847;19;20022;-62
2023/02/01 03:49:11;;;;;;;23.55;3.22;;;6.30;83.10;;;;;;9177560;19;20018;-61
2023/02/01 03:52:18;;;;;;;22.52;3.28;;;6.30;83.10;;;;;;9179335;19;20006;-61
2023/02/01 03:55:27;;;;;;;25.00;3.42;;;6.30;83.00;;;;;;9179382;19;20018;-63
2023/02/01 03:58:33;;;;;;;26.25;3.17;;;6.40;83.00;;;;;;9178826;19;20010;-63
2023/02/01 04:01:39;;;;;;;24.65;3.78;;;6.40;83.00;;;;;;9179949;19;20022;-63
2023/02/01 04:04:44;;;;;;;20.10;3.00;;;6.40;83.00;;;;;;9180383;19;20023;-63
2023/02/01 04:07:54;;;;;;;28.20;2.92;;;6.40;83.00;;;;;;9178091;19;20026;-62
2023/02/01 04:10:57;;;;;;;21.35;4.57;;;6.50;83.10;;;;;;9178165;19;20027;-63
2023/02/01 04:14:05;;;;;;;16.80;3.58;;;6.50;83.10;;;;;;9180467;19;20015;-63
2023/02/01 04:17:09;;;;;;;19.98;3.30;;;6.50;83.10;;;;;;9180096;19;20458;-63
2023/02/01 04:20:15;;;;;;;19.13;2.85;;;6.50;83.10;;;;;;9179771;19;20482;-66
2023/02/01 04:23:20;;;;;;;17.65;2.83;;;6.60;83.10;;;;;;9178183;19;20025;-64
2023/02/01 04:26:26;;;;;;;13.77;2.25;;;6.60;83.00;;;;;;9179986;19;20019;-62
2023/02/01 04:29:32;;;;;;;22.27;3.40;;;6.60;83.00;;;;;;9177192;19;20389;-62
2023/02/01 04:32:38;;;;;;;16.85;2.50;;;6.70;83.00;;;;;;9179514;19;20020;-66
2023/02/01 04:35:42;;;;;;;24.08;2.95;;;6.70;83.00;;;;;;9179011;19;20011;-64
2023/02/01 04:38:48;;;;;;;27.70;3.63;;;6.70;82.90;;;;;;9179274;19;20019;-61
2023/02/01 04:41:51;;;;;;;;;;;6.70;82.90;;;;;;9180107;19;20007;-61
2023/02/01 04:44:59;;;;;;;22.20;3.30;;;6.80;82.90;;;;;;9174868;19;20351;-60
2023/02/01 04:48:03;;;;;;;21.23;3.38;;;6.80;82.90;;;;;;9179142;19;20021;-65
2023/02/01 04:51:10;;;;;;;20.95;4.47;;;6.80;82.90;;;;;;9177470;19;20022;-63
2023/02/01 04:54:13;;;;;;;20.95;3.55;;;6.80;82.90;;;;;;9179321;19;20045;-61
2023/02/01 04:57:19;;;;;;;31.90;3.80;;;6.90;83.00;;;;;;9178557;19;20011;-60
2023/02/01 05:00:25;;;;;;;25.63;3.75;;;6.90;83.00;;;;;;9178571;19;20050;-65
2023/02/01 05:03:31;;;;;;;14.27;2.63;;;7.00;83.00;;;;;;9178250;19;20502;-62
2023/02/01 05:06:35;;;;;;;;;;;7.00;83.00;;;;;;9179645;19;20015;-61
2023/02/01 05:09:41;;;;;;;22.83;3.28;;;7.00;82.90;;;;;;9175270;19;19919;-61
2023/02/01 05:16:06;;;;;;;17.40;3.28;;;7.00;82.80;;;;;;9177853;19;19946;-63
2023/02/01 05:19:10;;;;;;;27.17;2.50;;;7.10;82.80;;;;;;9176992;19;20018;-61
2023/02/01 05:22:16;;;;;;;19.15;3.55;;;7.10;82.90;;;;;;9177656;19;20015;-62
2023/02/01 05:25:20;;;;;;;18.13;3.88;;;7.10;82.80;;;;;;9175630;19;20392;-62
2023/02/01 05:28:26;;;;;;;19.00;3.53;;;7.10;82.80;;;;;;9176839;19;20018;-61
2023/02/01 05:31:31;;;;;;;21.05;3.55;;;7.20;82.80;;;;;;9176012;19;20025;-63
2023/02/01 05:34:37;;;;;;;21.63;3.17;;;7.20;82.80;;;;;;9177253;19;20015;-62
2023/02/01 05:37:41;;;;;;;;;;;7.20;82.70;;;;;;9176126;19;20034;-60
2023/02/01 05:40:49;;;;;;;26.35;4.00;;;7.20;82.70;;;;;;9177366;19;19925;-64
2023/02/01 05:43:53;;;;;;;20.23;2.60;;;7.20;82.60;;;;;;9176509;19;20014;-63
2023/02/01 05:47:01;;;;;;;18.42;2.92;;;7.30;82.60;;;;;;9170940;19;20356;-65
2023/02/01 05:50:06;;;;;;;15.32;2.63;;;7.30;82.60;;;;;;9174203;19;20078;-64
2023/02/01 05:53:11;;;;;;;16.65;2.92;;;7.30;82.60;;;;;;9176189;19;20487;-61
2023/02/01 05:56:15;;;;;;;;;;;7.30;82.50;;;;;;9177669;19;20392;-63
2023/02/01 05:59:21;;;;;;;16.17;3.08;;;7.30;82.50;;;;;;9176864;19;19929;-61
2023/02/01 06:02:27;;;;;;;;;;;7.30;82.50;;;;;;9177119;19;20037;-62
2023/02/01 06:05:32;;;;;;;19.23;3.53;;;7.30;82.60;;;;;;9176644;19;19926;-64
2023/02/01 06:08:36;;;;;;;;;;;7.30;82.50;;;;;;9174219;19;20021;-63
2023/02/01 06:11:42;;;;;;;27.80;4.75;;;7.30;82.60;;;;;;9173217;19;19958;-60
2023/02/01 06:14:46;;;;;;;21.02;3.78;;;7.30;82.60;;;;;;9175801;19;20019;-63
2023/02/01 06:17:54;;;;;;;13.88;3.00;;;7.30;82.50;;;;;;9172085;19;20011;-64
2023/02/01 06:20:59;;;;;;;26.17;3.55;;;7.30;82.50;;;;;;9175300;19;20018;-63
2023/02/01 06:24:06;;;;;;;21.55;5.00;;;7.30;82.50;;;;;;9175221;19;20026;-63
2023/02/01 06:27:10;;;;;;;19.15;3.90;;;7.30;82.70;;;;;;9174869;19;20037;-61
2023/02/01 06:30:17;;;;;;;21.65;3.38;;;7.40;82.50;;;;;;9173152;19;20023;-62
2023/02/01 06:33:24;;;;;;;22.50;3.92;;;7.40;82.50;;;;;;9173293;19;20006;-62
2023/02/01 06:36:29;;;;;;;36.50;3.47;;;7.40;82.40;;;;;;9173000;19;20011;-65
2023/02/01 06:39:33;;;;;;;19.55;4.43;;;7.40;82.50;;;;;;9174774;19;20511;-63
2023/02/01 06:42:39;;;;;;;15.43;3.25;;;7.40;82.40;;;;;;9178342;19;20121;-64
2023/02/01 06:45:43;;;;;;;;;;;7.40;82.40;;;;;;9179791;19;20014;-63
2023/02/01 06:48:51;;;;;;;21.67;3.08;;;7.40;82.40;;;;;;9182295;19;19926;-62
2023/02/01 06:51:55;;;;;;;30.38;3.92;;;7.40;82.30;;;;;;9182210;19;20018;-64
2023/02/01 06:55:01;;;;;;;25.17;3.65;;;7.40;82.30;;;;;;9182281;19;20018;-64
2023/02/01 06:58:04;;;;;;;23.92;3.15;;;7.40;82.30;;;;;;9182934;19;20377;-63
2023/02/01 07:01:11;;;;;;;22.73;3.83;;;7.40;82.30;;;;;;9182119;19;20014;-66
2023/02/01 07:04:17;;;;;;;24.15;3.67;;;7.40;82.30;;;;;;9179770;19;20048;-64
2023/02/01 07:07:23;;;;;;;23.58;3.47;;;7.40;82.30;;;;;;9181954;19;20018;-64
2023/02/01 07:10:27;;;;;;;;;;;7.50;82.30;;;;;;9174234;19;20026;-64
2023/02/01 07:13:33;;;;;;;27.33;3.95;;;7.50;82.30;;;;;;9172968;19;19923;-64
2023/02/01 07:16:36;;;;;;;19.23;2.78;;;7.50;82.30;;;;;;9175963;19;20018;-64
2023/02/01 07:19:44;;;;;;;18.95;3.10;;;7.50;82.20;;;;;;9175440;19;20117;-64
2023/02/01 07:22:48;;;;;;;23.73;3.13;;;7.50;82.20;;;;;;9174676;19;20027;-63
2023/02/01 07:25:58;;;;;;;13.55;3.15;;;7.50;82.20;;;;;;9175484;19;20041;-64
2023/02/01 07:29:02;;;;;;;15.55;3.05;;;7.50;82.10;;;;;;9174589;19;20022;-63
2023/02/01 07:32:08;;;;;;;18.90;2.72;;;7.50;82.20;;;;;;9174885;19;20014;-62
2023/02/01 07:35:13;;;;;;;;;;;7.50;82.10;;;;;;9173741;19;20048;-65
2023/02/01 07:38:21;;;;;;;13.98;2.75;;;7.50;82.20;;;;;;9175714;19;19920;-62
2023/02/01 07:41:25;;;;;;;17.08;2.90;;;7.50;82.10;;;;;;9178843;19;20011;-62
2023/02/01 07:44:31;;;;;;;19.80;2.88;;;7.50;82.10;;;;;;9176200;19;20021;-65
2023/02/01 07:47:35;;;;;;;22.30;3.08;;;7.50;82.10;;;;;;9168635;19;20942;-65
2023/02/01 07:50:42;;;;;;;18.27;3.28;;;7.60;82.20;;;;;;9173654;19;20015;-63
2023/02/01 07:53:46;;;;;;;22.75;3.38;;;7.60;82.10;;;;;;9179466;19;20010;-61
2023/02/01 07:56:52;;;;;;;25.80;3.10;;;7.60;82.00;;;;;;9173033;19;20021;-64
2023/02/01 08:03:18;;;;;;;28.30;4.72;;;7.60;82.00;;;;;;9179337;19;20405;-62
2023/02/01 08:06:25;;;;;;;29.45;3.38;;;7.60;82.00;;;;;;9177515;19;20343;-62
2023/02/01 08:09:31;;;;;;;18.50;3.25;;;7.60;82.00;;;;;;9166916;19;20021;-61
2023/02/01 08:12:35;;;;;;;18.63;2.95;;;7.60;81.90;;;;;;9171012;19;20022;-63
2023/02/01 08:15:40;;;;;;;17.73;3.15;;;7.60;81.90;;;;;;9170601;19;20010;-63
2023/02/01 08:18:45;;;;;;;16.17;2.45;;;7.60;81.90;;;;;;9170317;19;20014;-63
2023/02/01 08:21:53;;;;;;;17.75;2.78;;;7.60;81.90;;;;;;9171835;19;20014;-64
2023/02/01 08:25:01;;;;;;;23.95;3.80;;;7.60;81.90;;;;;;9171841;19;20055;-63
2023/02/01 08:28:07;;;;;;;12.32;2.38;;;7.60;81.80;;;;;;9170796;19;21490;-63
2023/02/01 08:31:14;;;;;;;23.33;3.47;;;7.70;82.00;;;;;;9167160;19;20027;-62
2023/02/01 08:34:20;;;;;;;23.88;3.05;;;7.70;81.90;;;;;;9171203;19;20007;-63
2023/02/01 08:37:26;;;;;;;20.27;3.08;;;7.70;81.90;;;;;;9171548;19;20364;-65
2023/02/01 08:40:32;;;;;;;28.50;3.03;;;7.70;81.80;;;;;;9169934;19;20011;-64
2023/02/01 08:43:36;;;;;;;12.23;2.78;;;7.70;81.80;;;;;;9170725;19;20014;-63
2023/02/01 08:46:42;;;;;;;17.00;2.83;;;7.70;81.80;;;;;;9166336;19;20475;-63
2023/02/01 08:49:46;;;;;;;15.20;4.45;;;7.80;81.80;;;;;;9169516;19;20369;-62
2023/02/01 08:52:54;;;;;;;20.23;3.22;;;7.80;81.90;;;;;;9170272;19;20531;-64
2023/02/01 08:55:58;;;;;;;22.60;3.17;;;7.80;81.70;;;;;;9170114;19;20029;-66
2023/02/01 08:59:04;;;;;;;16.80;3.25;;;7.80;81.70;;;;;;9169515;19;20010;-66
2023/02/01 09:02:10;;;;;;;;;;;7.80;81.70;;;;;;9171710;19;20026;-64
2023/02/01 09:05:18;;;;;;;27.05;3.92;;;7.90;81.70;;;;;;9165208;19;19926;-64
2023/02/01 09:08:24;;;;;;;17.27;3.03;;;7.90;81.70;;;;;;9173147;19;20048;-63
2023/02/01 09:11:30;;;;;;;15.20;2.95;;;7.90;81.70;;;;;;9165443;19;20022;-66
2023/02/01 09:14:34;;;;;;;;;;;7.90;81.70;;;;;;9171047;19;20018;-64
2023/02/01 09:17:41;;;;;;;15.82;3.38;;;7.90;81.70;;;;;;9170091;19;19933;-60
2023/02/01 09:20:45;;;;;;;19.10;3.63;;;7.90;81.70;;;;;;9169802;19;20015;-64
2023/02/01 09:23:54;;;;;;;15.63;3.40;;;7.90;81.70;;;;;;9170080;19;20010;-65
2023/02/01 09:27:00;;;;;;;25.13;3.10;;;7.90;81.60;;;;;;9166137;19;20432;-65
2023/02/01 09:30:07;;;;;;;20.80;2.95;;;7.90;81.60;;;;;;9168466;19;20029;-63
2023/02/01 09:33:11;;;;;;;16.35;3.58;;;8.00;81.60;;;;;;9172493;19;20030;-63
2023/02/01 09:36:19;;;;;;;24.50;3.75;;;8.00;81.60;;;;;;9171146;19;20034;-64
2023/02/01 09:39:25;;;;;;;10.00;2.30;;;8.00;81.60;;;;;;9169627;19;20022;-64
2023/02/01 09:42:57;;;;;;;20.65;2.88;;;8.00;81.60;;;;;;9169482;19;20014;-64
2023/02/01 09:46:08;;;;;;;16.23;3.28;;;8.00;81.50;;;;;;9164653;19;20037;-64
2023/02/01 09:49:20;;;;;;;27.17;3.13;;;8.00;81.50;;;;;;9167065;19;20355;-63
2023/02/01 09:52:30;;;;;;;27.73;4.03;;;8.10;81.60;;;;;;9175182;19;20031;-64
2023/02/01 09:55:43;;;;;;;18.38;2.33;;;8.10;81.60;;;;;;9176492;19;20356;-62
2023/02/01 09:58:53;;;;;;;23.17;3.53;;;8.10;81.60;;;;;;9170163;19;20078;-62
2023/02/01 10:02:00;;;;;;;17.02;3.03;;;8.10;81.50;;;;;;9166218;19;20022;-62
2023/02/01 10:05:04;;;;;;;25.23;4.55;;;8.10;81.50;;;;;;9168924;19;20015;-63
2023/02/01 10:08:20;;;;;;;22.95;3.22;;;8.20;81.50;;;;;;9169672;19;20018;-65
2023/02/01 10:11:31;;;;;;;24.98;2.70;;;8.20;81.40;;;;;;9170136;19;20059;-62
2023/02/01 10:14:54;;;;;;;17.67;2.42;;;8.20;81.40;;;;;;9168974;19;20817;-62
2023/02/01 10:18:13;;;;;;;17.13;2.45;;;8.20;81.30;;;;;;9175286;19;20022;-62
2023/02/01 10:21:29;;;;;;;16.73;2.70;;;8.20;81.30;;;;;;9175975;19;20010;-63
2023/02/01 10:24:41;;;;;;;23.90;3.08;;;8.20;81.30;;;;;;9174493;19;20057;-65
2023/02/01 10:27:49;;;;;;;14.18;2.13;;;8.30;81.30;;;;;;9182722;19;20016;-65
2023/02/01 10:30:58;;;;;;;11.10;2.42;;;8.30;81.30;;;;;;9181171;19;20447;-63
2023/02/01 10:34:17;;;;;;;15.75;2.85;;;8.30;81.30;;;;;;9183135;19;20014;-65
2023/02/01 10:37:31;;;;;;;30.08;3.88;;;8.30;81.90;;;;;;9177754;19;20094;-65
2023/02/01 10:40:39;;;;;;;15.88;3.15;;;8.20;81.20;;;;;;9172854;19;20014;-63
2023/02/01 10:43:48;;;;;;;19.95;2.63;;;8.20;81.20;;;;;;9176519;19;20487;-64
2023/02/01 10:46:54;;;;;;;24.08;2.67;;;8.20;81.30;;;;;;9171219;19;20043;-68
2023/02/01 10:50:15;;;;;;;18.85;2.47;;;8.10;81.40;;;;;;9177342;19;20044;-63
2023/02/01 10:53:26;;;;;;;24.83;3.78;;;8.10;81.40;;;;;;9182491;19;20006;-63
2023/02/01 10:56:31;;;;;;;24.83;4.03;;;8.10;81.40;;;;;;9181950;19;20023;-64
2023/02/01 10:59:39;;;;;;;10.98;2.78;;;8.00;81.50;;;;;;9179622;19;20017;-63
2023/02/01 11:02:44;;;;;;;16.85;2.58;;;8.00;81.50;;;;;;9181343;19;20014;-64
2023/02/01 11:05:51;;;;;;;17.70;3.17;;;8.00;81.50;;;;;;9182266;19;20392;-63
2023/02/01 11:08:57;;;;;;;14.88;2.97;;;7.90;81.60;;;;;;9178587;19;20018;-65
2023/02/01 11:12:03;;;;;;;14.18;2.70;;;7.90;81.60;;;;;;9167071;19;20002;-66
2023/02/01 11:15:21;;;;;;;20.50;3.35;;;7.80;81.70;;;;;;9170808;19;20020;-63
2023/02/01 11:18:31;;;;;;;25.77;3.95;;;7.80;81.80;;;;;;9178971;19;20014;-65
2023/02/01 11:21:36;;;;;;;22.55;4.32;;;7.80;81.80;;;;;;9181146;19;20657;-65
2023/02/01 11:24:48;;;;;;;16.25;3.10;;;7.70;82.40;;;;;;9177342;19;20007;-63
2023/02/01 11:27:53;;;;;;;16.73;2.70;;;7.70;81.90;;;;;;9174039;19;20018;-66
2023/02/01 11:31:06;;;;;;;21.90;3.53;;;7.70;81.90;;;;;;9173228;19;20038;-64
2023/02/01 11:34:16;;;;;;;19.85;4.10;;;7.70;82.10;;;;;;9174597;19;20022;-63
2023/02/01 11:37:25;;;;;;;17.45;2.95;;;7.60;82.00;;;;;;9174492;19;20026;-65
2023/02/01 11:40:35;;;;;;;19.65;3.13;;;7.60;82.10;;;;;;9172925;19;20102;-63
2023/02/01 11:43:53;;;;;;;14.43;2.60;;;7.60;82.10;;;;;;9181850;19;20018;-63
2023/02/01 11:47:20;;;;;;;16.80;2.47;;;7.60;82.20;;;;;;9176629;19;20019;-63
2023/02/01 11:50:35;;;;;;;19.67;2.67;;;7.60;82.20;;;;;;9179475;19;20022;-64
2023/02/01 11:53:59;;;;;;;21.25;3.63;;;7.60;82.20;;;;;;9179316;19;20434;-64
2023/02/01 11:57:16;;;;;;;26.80;3.20;;;7.60;82.40;;;;;;9179981;19;20025;-64
2023/02/01 12:00:38;;;;;;;27.20;3.08;;;7.60;82.30;;;;;;9179987;19;20514;-64
2023/02/01 12:04:17;;;;;;;17.02;2.67;;;7.60;82.40;;;;;;9180492;19;20014;-63
2023/02/01 12:07:29;;;;;;;13.90;2.85;;;7.60;82.50;;;;;;9178834;19;20019;-65
2023/02/01 12:10:47;;;;;;;20.80;2.78;;;7.60;82.50;;;;;;9170978;19;20010;-65
2023/02/01 12:14:03;;;;;;;25.42;2.80;;;7.60;82.50;;;;;;9177509;19;20423;-64
2023/02/01 12:17:29;;;;;;;13.65;2.83;;;7.70;82.60;;;;;;9179838;19;20018;-63
2023/02/01 12:20:56;;;;;;;16.08;2.78;;;7.70;82.60;;;;;;9178718;19;20029;-63
2023/02/01 12:24:30;;;;;;;19.73;3.70;;;7.70;82.60;;;;;;9177155;19;20467;-66
2023/02/01 12:28:03;;;;;;;19.08;3.97;;;7.70;82.70;;;;;;9178822;19;20018;-65
2023/02/01 12:31:33;;;;;;;21.83;3.10;;;7.70;82.70;;;;;;9175543;19;20050;-64
2023/02/01 12:34:55;;;;;;;21.73;3.05;;;7.70;82.70;;;;;;9175280;19;20015;-63
2023/02/01 12:38:16;;;;;;;21.42;2.80;;;7.80;82.80;;;;;;9173586;19;20575;-63
2023/02/01 12:41:35;;;;;;;22.58;3.60;;;7.80;82.70;;;;;;9167729;19;20027;-65
2023/02/01 12:44:47;;;;;;;17.40;2.92;;;7.80;82.70;;;;;;9163908;19;20482;-66
2023/02/01 12:47:55;;;;;;;16.15;2.50;;;7.90;82.80;;;;;;9166050;19;20023;-66
2023/02/01 12:51:06;;;;;;;18.73;4.07;;;7.90;82.80;;;;;;9163845;19;20018;-66
2023/02/01 12:54:16;;;;;;;20.83;3.05;;;7.90;82.80;;;;;;9167551;19;20097;-68
2023/02/01 12:57:28;;;;;;;17.80;3.42;;;7.90;82.80;;;;;;9166705;19;20014;-68
2023/02/01 13:00:38;;;;;;;16.48;3.22;;;7.90;82.80;;;;;;9168308;19;20037;-64
2023/02/01 13:03:57;;;;;;;23.95;3.30;;;7.90;83.10;;;;;;9165894;19;20026;-61
2023/02/01 13:07:13;;;;;;;18.85;2.95;;;8.00;82.80;;;;;;9165876;19;20032;-63
2023/02/01 13:10:31;;;;;;;24.80;2.90;;;8.00;82.80;;;;;;9161555;19;20016;-65
2023/02/01 13:13:47;;;;;;;19.13;2.78;;;8.00;82.90;;;;;;9165913;19;20387;-64
2023/02/01 13:16:59;;;;;;;24.88;4.00;;;8.00;82.90;;;;;;9163444;19;20015;-64
2023/02/01 13:20:08;;;;;;;20.02;2.95;;;8.00;82.80;;;;;;9164342;19;20530;-66
2023/02/01 13:23:24;;;;;;;17.00;2.72;;;8.00;82.80;;;;;;9165023;19;20025;-64
2023/02/01 13:26:28;;;;;;;24.08;3.05;;;8.00;82.90;;;;;;9165277;19;20024;-64
2023/02/01 13:29:37;;;;;;;22.95;3.08;;;8.00;82.80;;;;;;9162826;19;20017;-64
2023/02/01 13:33:00;;;;;;;26.15;3.45;;;8.00;82.90;;;;;;9164633;19;20014;-63
2023/02/01 13:36:36;;;;;;;;;;;8.00;82.90;;;;;;9167431;19;20029;-64
2023/02/01 13:39:51;;;;;;;24.77;3.05;;;8.00;82.90;;;;;;9167686;19;20308;-63
2023/02/01 13:43:00;;;;;;;20.80;3.97;;;8.00;82.90;;;;;;9163163;19;20019;-66
2023/02/01 13:46:08;;;;;;;26.38;3.20;;;8.00;83.00;;;;;;9164637;19;20478;-67
2023/02/01 13:49:22;;;;;;;18.20;2.92;;;8.00;83.00;;;;;;9164654;19;20018;-66
2023/02/01 13:52:33;;;;;;;26.88;3.05;;;8.10;83.10;;;;;;9164920;19;20078;-65
2023/02/01 13:55:41;;;;;;;23.02;3.35;;;8.10;83.10;;;;;;9173755;19;20014;-65
2023/02/01 13:58:46;;;;;;;21.65;3.08;;;8.10;83.10;;;;;;9173343;19;20018;-64
2023/02/01 14:01:54;;;;;;;25.58;3.97;;;8.10;83.10;;;;;;9172107;19;20014;-65
2023/02/01 14:04:58;;;;;;;23.25;4.20;;;8.10;83.20;;;;;;9172904;19;20018;-63
2023/02/01 14:08:14;;;;;;;20.63;3.45;;;8.10;83.10;;;;;;9171291;19;20447;-66
2023/02/01 14:11:39;;;;;;;33.72;3.53;;;8.20;83.30;;;;;;9167667;19;20018;-66
2023/02/01 14:14:50;;;;;;;26.33;3.15;;;8.20;83.30;;;;;;9171417;19;20003;-65
2023/02/01 14:17:56;;;;;;;24.83;3.35;;;8.20;83.30;;;;;;9173596;19;20018;-64
2023/02/01 14:21:20;;;;;;;30.92;3.97;;;8.20;83.20;;;;;;9174274;19;20026;-65
2023/02/01 14:24:29;;;;;;;26.05;4.00;;;8.20;83.30;;;;;;9172091;19;20080;-64
2023/02/01 14:27:37;;;;;;;33.90;4.65;;;8.20;83.20;;;;;;9170698;19;20367;-66
2023/02/01 14:30:44;;;;;;;26.13;3.67;;;8.20;83.30;;;;;;9168759;19;20659;-68
2023/02/01 14:33:59;;;;;;;28.35;3.95;;;8.30;83.30;;;;;;9170979;19;20574;-64
2023/02/01 14:37:06;;;;;;;21.25;4.05;;;8.30;83.30;;;;;;9171604;19;20014;-64
2023/02/01 14:40:22;;;;;;;36.33;3.85;;;8.30;83.30;;;;;;9169082;19;20022;-64
2023/02/01 14:43:53;;;;;;;25.80;4.60;;;8.30;83.30;;;;;;9167956;19;20010;-64
2023/02/01 14:47:32;;;;;;;21.65;3.58;;;8.20;83.30;;;;;;9172869;19;20025;-65
2023/02/01 14:50:41;;;;;;;18.58;3.63;;;8.30;83.30;;;;;;9173319;19;20018;-65
2023/02/01 14:53:48;;;;;;;23.42;2.92;;;8.30;83.30;;;;;;9176227;19;20022;-63
2023/02/01 14:56:53;;;;;;;21.58;4.50;;;8.20;83.30;;;;;;9175705;19;20010;-62
2023/02/01 15:00:08;;;;;;;21.27;3.50;;;8.30;83.40;;;;;;9175725;19;20014;-65
2023/02/01 15:03:25;;;;;;;20.70;2.72;;;8.30;83.30;;;;;;9173942;19;20014;-64
2023/02/01 15:06:39;;;;;;;25.67;3.80;;;8.20;83.30;;;;;;9176188;19;20022;-64
2023/02/01 15:09:47;;;;;;;23.85;3.25;;;8.20;83.30;;;;;;9174882;19;20041;-66
2023/02/01 15:12:53;;;;;;;24.63;3.60;;;8.20;83.30;;;;;;9172679;19;20014;-65
2023/02/01 15:16:04;;;;;;;;;;;8.20;83.40;;;;;;9175831;19;20881;-64
2023/02/01 15:19:11;;;;;;;22.55;3.88;;;8.30;83.40;;;;;;9174393;19;20256;-64
2023/02/01 15:22:20;;;;;;;31.65;3.17;;;8.20;83.30;;;;;;9173275;19;20113;-64
2023/02/01 15:25:29;;;;;;;20.67;3.60;;;8.20;83.40;;;;;;9175321;19;20018;-64
2023/02/01 15:28:33;;;;;;;21.17;3.20;;;8.20;83.40;;;;;;9175528;19;20471;-68
2023/02/01 15:31:42;;;;;;;22.25;4.25;;;8.20;83.40;;;;;;9171180;19;20427;-65
2023/02/01 15:34:48;;;;;;;18.08;3.42;;;8.20;83.50;;;;;;9175718;19;20017;-65
2023/02/01 15:38:42;;;;;;;24.20;3.33;;;8.20;83.50;;;;;;9174738;19;20498;-65
2023/02/01 15:41:50;;;;;;;27.17;3.63;;;8.30;83.60;;;;;;9175579;19;20011;-64
2023/02/01 15:44:56;;;;;;;25.70;3.17;;;8.20;83.50;;;;;;9174358;19;20612;-66
2023/02/01 15:48:01;;;;;;;18.60;3.55;;;8.20;83.50;;;;;;9174907;19;20033;-66
2023/02/01 15:51:08;;;;;;;23.65;3.95;;;8.20;83.50;;;;;;9173376;19;20046;-63
2023/02/01 15:54:20;;;;;;;32.08;3.72;;;8.20;83.50;;;;;;9174673;19;20029;-65
2023/02/01 15:57:32;;;;;;;27.08;4.13;;;8.20;83.50;;;;;;9174010;19;20010;-68
2023/02/01 16:00:45;;;;;;;27.27;3.60;;;8.20;83.50;;;;;;9174486;19;20018;-67
2023/02/01 16:03:52;;;;;;;26.65;5.25;;;8.20;83.50;;;;;;9173496;19;20078;-65
2023/02/01 16:06:59;;;;;;;20.42;4.43;;;8.20;83.50;;;;;;9175709;19;20479;-67
2023/02/01 16:10:26;;;;;;;25.10;3.05;;;8.20;83.50;;;;;;9173866;19;20022;-65
2023/02/01 16:13:30;;;;;;;19.10;3.60;;;8.20;83.60;;;;;;9177655;19;20010;-63
2023/02/01 16:16:36;;;;;;;31.85;5.18;;;8.20;83.50;;;;;;9178610;19;20029;-66
2023/02/01 16:19:40;;;;;;;16.58;3.40;;;8.20;83.50;;;;;;9177417;19;20488;-65
2023/02/01 16:22:45;;;;;;;21.25;3.35;;;8.20;83.60;;;;;;9178754;19;20364;-65
2023/02/01 16:25:51;;;;;;;;;;;8.20;83.60;;;;;;9178121;19;20643;-64
2023/02/01 16:28:57;;;;;;;18.65;2.72;;;8.20;83.50;;;;;;9166977;19;19919;-64
2023/02/01 16:32:01;;;;;;;22.13;2.83;;;8.20;83.40;;;;;;9166524;19;20087;-63
2023/02/01 16:35:18;;;;;;;26.60;3.17;;;8.20;83.50;;;;;;9172228;19;20479;-64
2023/02/01 16:38:23;;;;;;;16.85;3.17;;;8.20;83.50;;;;;;9169414;19;20026;-63
2023/02/01 16:41:32;;;;;;;24.70;3.33;;;8.20;83.50;;;;;;9172135;19;20668;-67
2023/02/01 16:44:35;;;;;;;23.75;2.88;;;8.20;83.50;;;;;;9172294;19;20015;-66
2023/02/01 16:47:45;;;;;;;21.13;2.80;;;8.10;83.40;;;;;;9171383;19;20011;-63
2023/02/01 16:50:51;;;;;;;15.18;2.58;;;8.10;83.40;;;;;;9171545;19;20037;-64
2023/02/01 16:53:57;;;;;;;17.88;3.03;;;8.10;83.40;;;;;;9172241;19;20022;-66
2023/02/01 16:57:03;;;;;;;;;;;8.10;83.40;;;;;;9168081;19;20057;-63
2023/02/01 17:00:11;;;;;;;17.98;2.78;;;8.10;83.40;;;;;;9167357;19;19922;-64